Time;durP1;ratioP1;P1;durP2;ratioP2;P2;SDS_P1;SDS_P2;PMS_P1;PMS_P2;Temp;Humidity;BMP_temperature;BMP_pressure;BME280_temperature;BME280_humidity;BME280_pressure;Samples;Min_cycle;Max_cycle;Signal;HPM_P1;HPM_P2
2021/06/06 00:00:39;;;;;;;5.60;3.50;;;;;;;19.33;53.93;101585.53;5072248;28;20036;-72
2021/06/06 00:03:07;;;;;;;5.63;3.53;;;;;;;19.37;54.40;101592.63;5072331;28;20017;-71
2021/06/06 00:05:58;;;;;;;7.15;3.80;;;;;;;19.49;54.40;101586.88;5071628;28;20112;-71
2021/06/06 00:08:25;;;;;;;6.30;3.40;;;;;;;19.50;55.01;101581.66;5071021;28;20441;-71
2021/06/06 00:10:55;;;;;;;6.63;3.70;;;;;;;19.46;53.93;101582.44;5071049;28;20482;-72
2021/06/06 00:13:21;;;;;;;6.90;3.25;;;;;;;19.42;54.16;101575.34;5070896;28;20041;-71
2021/06/06 00:15:47;;;;;;;7.88;3.35;;;;;;;19.39;54.14;101581.38;5072773;28;20545;-71
2021/06/06 00:18:13;;;;;;;6.32;3.72;;;;;;;19.02;54.25;101574.22;5071126;28;20074;-71
2021/06/06 00:20:39;;;;;;;7.57;3.70;;;;;;;19.25;54.15;101578.38;5070520;28;20025;-71
2021/06/06 00:23:06;;;;;;;6.85;3.83;;;;;;;19.25;53.90;101578.38;5071032;28;20020;-71
2021/06/06 00:25:32;;;;;;;5.80;3.67;;;;;;;19.30;53.67;101581.13;5070872;28;20111;-71
2021/06/06 00:27:58;;;;;;;6.97;3.58;;;;;;;19.35;53.82;101578.63;5072122;28;20028;-71
2021/06/06 00:30:24;;;;;;;6.35;3.00;;;;;;;19.34;53.43;101587.31;5070781;28;20120;-71
2021/06/06 00:32:50;;;;;;;5.47;3.92;;;;;;;19.34;53.51;101585.59;5070791;28;20470;-71
2021/06/06 00:35:17;;;;;;;8.35;4.30;;;;;;;19.30;54.43;101577.63;5072108;28;20029;-72
2021/06/06 00:37:42;;;;;;;5.40;4.15;;;;;;;19.02;53.67;101580.31;5070835;28;20028;-71
2021/06/06 00:40:12;;;;;;;7.88;4.20;;;;;;;18.68;55.19;101580.19;5070802;28;20115;-71
2021/06/06 00:42:38;;;;;;;5.97;3.38;;;;;;;18.71;55.21;101574.16;5070202;28;20481;-71
2021/06/06 00:45:07;;;;;;;6.32;3.90;;;;;;;18.89;54.28;101579.06;5066642;28;20029;-71
2021/06/06 00:47:33;;;;;;;9.18;3.80;;;;;;;18.81;53.97;101585.78;5070478;28;20029;-71
2021/06/06 00:49:58;;;;;;;4.75;3.58;;;;;;;18.54;54.70;101581.44;5054260;28;20389;-71
2021/06/06 00:52:24;;;;;;;6.00;4.15;;;;;;;18.79;54.51;101582.22;5070018;28;20025;-71
2021/06/06 00:54:51;;;;;;;6.65;3.78;;;;;;;19.03;53.80;101581.22;5070384;28;20074;-71
2021/06/06 00:57:23;;;;;;;5.45;3.65;;;;;;;18.66;54.21;101587.06;5070434;28;20020;-71
2021/06/06 00:59:53;;;;;;;8.30;3.50;;;;;;;18.72;54.14;101585.50;5070816;28;20098;-71
2021/06/06 01:02:19;;;;;;;7.03;3.38;;;;;;;18.62;53.94;101580.00;5073279;28;20033;-71
2021/06/06 01:04:44;;;;;;;6.18;3.80;;;;;;;18.48;53.82;101586.47;5075645;28;20385;-71
2021/06/06 01:07:10;;;;;;;7.13;3.67;;;;;;;18.55;54.05;101588.44;5075598;28;20113;-71
2021/06/06 01:09:36;;;;;;;5.53;3.55;;;;;;;18.59;54.39;101582.50;5074350;28;20040;-71
2021/06/06 01:12:07;;;;;;;7.38;3.97;;;;;;;18.69;53.56;101584.56;5073597;28;20103;-71
2021/06/06 01:14:41;;;;;;;7.32;3.63;;;;;;;18.74;52.84;101583.81;5070387;28;20117;-71
2021/06/06 01:17:20;;;;;;;7.78;3.72;;;;;;;19.00;52.94;101586.34;5074312;28;20031;-71
2021/06/06 01:19:49;;;;;;;6.35;3.38;;;;;;;19.04;52.38;101583.84;5074049;28;20024;-71
2021/06/06 01:23:05;;;;;;;8.27;4.47;;;;;;;19.08;52.10;101585.72;5073728;28;20381;-72
2021/06/06 01:25:37;;;;;;;6.18;3.85;;;;;;;19.08;52.62;101590.06;5052725;28;20075;-71
2021/06/06 01:28:14;;;;;;;5.97;3.47;;;;;;;19.12;53.20;101590.22;5063980;28;20044;-71
2021/06/06 01:30:45;;;;;;;7.13;4.15;;;;;;;19.08;52.51;101590.94;5073710;28;20020;-71
2021/06/06 01:33:17;;;;;;;5.15;3.55;;;;;;;19.07;53.83;101585.69;5073895;28;20056;-71
2021/06/06 01:35:55;;;;;;;6.18;3.75;;;;;;;18.96;53.85;101578.41;5073678;28;20327;-71
2021/06/06 01:38:39;;;;;;;6.15;3.33;;;;;;;18.96;53.92;101581.00;5073785;28;20024;-71
2021/06/06 01:41:08;;;;;;;6.57;3.50;;;;;;;18.95;53.51;101584.47;5074623;28;20028;-71
2021/06/06 01:43:35;;;;;;;5.28;4.13;;;;;;;18.86;53.89;101573.75;5073072;28;20121;-71
2021/06/06 01:46:07;;;;;;;10.00;4.22;;;;;;;18.93;53.97;101580.91;5073617;28;20028;-70
2021/06/06 01:48:36;;;;;;;7.22;3.63;;;;;;;18.96;53.88;101583.63;5074501;28;20363;-71
2021/06/06 01:51:08;;;;;;;5.88;3.85;;;;;;;18.95;54.05;101587.06;5072690;28;20035;-71
2021/06/06 01:53:36;;;;;;;9.50;4.18;;;;;;;18.90;54.31;101580.81;5073151;28;20139;-71
2021/06/06 01:56:04;;;;;;;5.97;3.25;;;;;;;18.88;54.62;101582.50;5073233;28;20032;-71
2021/06/06 01:58:30;;;;;;;9.25;3.65;;;;;;;18.84;54.96;101572.81;5037878;28;20122;-71
2021/06/06 02:01:08;;;;;;;10.95;4.05;;;;;;;18.84;55.13;101576.28;5040620;28;20021;-71
2021/06/06 02:03:34;;;;;;;7.28;3.58;;;;;;;18.86;55.36;101578.97;5073008;28;20051;-70
2021/06/06 02:05:59;;;;;;;9.50;4.15;;;;;;;18.83;55.56;101584.09;5072812;28;20129;-71
2021/06/06 02:08:29;;;;;;;8.45;3.65;;;;;;;18.82;55.45;101577.09;5056541;28;20032;-71
2021/06/06 02:11:01;;;;;;;7.13;3.75;;;;;;;18.78;56.09;101575.25;5072742;28;20466;-71
2021/06/06 02:13:42;;;;;;;8.45;4.05;;;;;;;18.73;56.29;101571.59;5060923;28;20036;-70
2021/06/06 02:16:08;;;;;;;5.25;3.58;;;;;;;18.73;57.79;101577.69;5073161;28;20016;-71
2021/06/06 02:18:34;;;;;;;5.70;3.95;;;;;;;18.70;59.13;101582.81;5056265;28;20082;-70
2021/06/06 02:21:00;;;;;;;8.38;4.47;;;;;;;18.66;60.19;101586.19;5073794;28;20111;-71
2021/06/06 02:23:28;;;;;;;6.60;4.45;;;;;;;18.65;60.92;101585.31;5072786;28;20020;-71
2021/06/06 02:26:02;;;;;;;4.95;3.95;;;;;;;18.56;61.22;101589.34;5051398;28;20109;-71
2021/06/06 02:28:52;;;;;;;6.97;4.38;;;;;;;18.51;62.53;101592.69;5048449;28;20369;-71
2021/06/06 02:31:26;;;;;;;6.25;4.80;;;;;;;18.50;62.72;101585.69;5073263;28;20086;-71
2021/06/06 02:34:14;;;;;;;6.55;4.63;;;;;;;18.48;63.45;101586.47;5072374;28;20481;-71
2021/06/06 02:36:47;;;;;;;7.72;4.38;;;;;;;18.49;61.20;101583.03;5072890;28;20028;-71
2021/06/06 02:39:21;;;;;;;7.35;4.63;;;;;;;18.45;61.77;101583.78;5072469;28;20020;-72
2021/06/06 02:42:07;;;;;;;7.53;4.55;;;;;;;18.52;61.07;101577.91;5072141;28;20378;-71
2021/06/06 02:44:45;;;;;;;5.43;4.15;;;;;;;18.54;61.63;101576.22;5044762;28;20020;-71
2021/06/06 02:47:12;;;;;;;6.85;4.22;;;;;;;18.54;63.15;101581.44;5071944;28;20107;-71
2021/06/06 02:49:42;;;;;;;6.60;4.28;;;;;;;18.50;63.48;101584.78;5071928;28;20438;-70
2021/06/06 02:52:13;;;;;;;8.32;4.57;;;;;;;18.48;64.39;101581.25;5071745;28;20028;-70
2021/06/06 02:54:48;;;;;;;10.00;5.15;;;;;;;18.45;63.33;101575.94;5047783;28;20025;-71
2021/06/06 02:57:16;;;;;;;8.70;4.70;;;;;;;18.41;63.37;101574.97;5032476;28;20051;-71
2021/06/06 02:59:48;;;;;;;5.97;4.45;;;;;;;18.40;64.25;101574.06;5023129;28;20083;-71
2021/06/06 03:02:18;;;;;;;7.75;5.15;;;;;;;18.43;63.25;101572.41;5031336;28;20387;-71
2021/06/06 03:04:47;;;;;;;8.27;4.75;;;;;;;18.33;61.68;101566.91;5029493;28;20017;-71
2021/06/06 03:07:17;;;;;;;8.95;4.35;;;;;;;18.37;62.64;101573.97;5031770;28;20151;-71
2021/06/06 03:09:42;;;;;;;8.38;4.65;;;;;;;18.38;63.36;101570.53;5028269;28;20123;-71
2021/06/06 03:12:11;;;;;;;5.22;4.35;;;;;;;18.34;64.10;101573.00;5031508;28;20451;-72
2021/06/06 03:14:38;;;;;;;7.13;4.30;;;;;;;18.33;64.17;101577.31;5031151;28;20034;-70
2021/06/06 03:17:14;;;;;;;7.97;5.13;;;;;;;18.30;64.42;101572.00;5028818;28;20075;-71
2021/06/06 03:19:47;;;;;;;8.68;4.70;;;;;;;18.32;64.16;101572.94;5031581;28;20502;-71
2021/06/06 03:22:19;;;;;;;8.32;5.20;;;;;;;18.29;64.22;101579.81;5005383;28;20041;-71
2021/06/06 03:24:55;;;;;;;10.18;5.55;;;;;;;18.29;64.58;101578.06;5031735;28;20494;-70
2021/06/06 03:27:24;;;;;;;9.50;5.63;;;;;;;18.31;64.18;101579.00;5031102;28;20483;-71
2021/06/06 03:29:57;;;;;;;9.35;5.82;;;;;;;18.28;63.68;101578.91;5031191;28;20040;-71
2021/06/06 03:32:30;;;;;;;9.80;5.45;;;;;;;18.25;64.44;101581.41;5030856;28;20025;-71
2021/06/06 03:34:55;;;;;;;9.73;6.55;;;;;;;18.27;64.67;101577.13;5031109;28;20172;-71
2021/06/06 03:37:21;;;;;;;11.95;8.52;;;;;;;18.34;65.11;101588.66;5032147;28;20429;-71
2021/06/06 03:39:46;;;;;;;15.82;10.07;;;;;;;18.35;65.45;101588.69;5031222;28;20060;-71
2021/06/06 03:42:13;;;;;;;32.45;22.10;;;;;;;18.44;67.61;101595.03;5032122;28;20029;-71
2021/06/06 03:44:38;;;;;;;33.03;24.05;;;;;;;18.51;67.59;101591.78;5026177;28;20372;-71
2021/06/06 03:47:04;;;;;;;38.17;26.15;;;;;;;18.57;68.76;101597.22;5031026;28;20032;-70
2021/06/06 03:49:30;;;;;;;37.78;27.25;;;;;;;18.64;69.07;101596.59;5031952;28;20083;-70
2021/06/06 03:51:55;;;;;;;44.63;31.98;;;;;;;18.71;69.43;101599.38;5032386;28;20021;-71
2021/06/06 03:54:21;;;;;;;44.35;32.95;;;;;;;18.74;69.74;101596.88;5065483;28;20124;-71
2021/06/06 03:56:49;;;;;;;39.78;29.98;;;;;;;18.77;69.63;101599.56;5071667;28;20035;-71
2021/06/06 03:59:15;;;;;;;49.90;35.08;;;;;;;18.77;69.60;101610.00;5070709;28;20043;-71
2021/06/06 04:01:42;;;;;;;52.60;36.42;;;;;;;18.79;69.72;101603.09;5070489;28;20036;-71
2021/06/06 04:04:08;;;;;;;47.08;34.53;;;;;;;18.79;69.54;101603.97;5070052;28;20021;-71
2021/06/06 04:06:33;;;;;;;47.05;34.15;;;;;;;18.83;69.34;101605.84;5070778;28;20073;-71
2021/06/06 04:08:59;;;;;;;45.95;33.85;;;;;;;18.83;69.21;101610.19;5070934;28;20104;-70
2021/06/06 04:11:25;;;;;;;47.10;34.95;;;;;;;18.84;69.64;101610.22;5071846;28;20050;-71
2021/06/06 04:13:51;;;;;;;45.55;33.50;;;;;;;18.85;69.19;101608.50;5071652;28;20033;-71
2021/06/06 04:16:18;;;;;;;48.33;35.65;;;;;;;18.86;69.10;101609.38;5069258;28;20025;-71
2021/06/06 04:18:43;;;;;;;49.75;35.17;;;;;;;18.85;69.51;101608.50;5072045;28;20104;-71
2021/06/06 04:21:13;;;;;;;44.28;31.00;;;;;;;18.89;68.61;101615.59;5054016;28;20177;-71
2021/06/06 04:23:39;;;;;;;42.88;31.17;;;;;;;18.89;68.66;101610.38;5069608;28;20025;-71
2021/06/06 04:26:05;;;;;;;46.63;31.17;;;;;;;18.95;68.47;101607.94;5070610;28;20436;-71
2021/06/06 04:28:31;;;;;;;44.38;32.72;;;;;;;18.96;69.16;101612.34;5070292;28;20025;-71
2021/06/06 04:30:57;;;;;;;51.25;34.70;;;;;;;19.01;69.12;101603.78;5070347;28;20382;-71
2021/06/06 04:33:22;;;;;;;51.80;34.47;;;;;;;19.07;69.01;101602.22;5070529;28;20017;-71
2021/06/06 04:35:48;;;;;;;48.55;33.13;;;;;;;19.08;69.25;101600.50;5072812;28;20477;-70
2021/06/06 04:38:25;;;;;;;57.78;38.40;;;;;;;19.08;69.46;101601.38;5057457;28;20414;-71
2021/06/06 04:40:51;;;;;;;53.28;36.65;;;;;;;19.08;69.61;101605.75;5073940;28;20024;-71
2021/06/06 04:43:17;;;;;;;61.33;39.67;;;;;;;19.09;70.19;101607.50;5074160;28;20036;-71
2021/06/06 04:45:43;;;;;;;52.40;37.20;;;;;;;19.07;70.02;101593.53;5071395;28;20035;-70
2021/06/06 04:48:18;;;;;;;60.65;40.72;;;;;;;19.13;69.92;101604.16;5074219;28;20028;-71
2021/06/06 04:50:45;;;;;;;61.63;41.30;;;;;;;19.13;69.88;101604.16;5064730;28;20021;-71
2021/06/06 04:53:11;;;;;;;61.15;41.63;;;;;;;19.14;70.60;101594.59;5073560;28;20041;-71
2021/06/06 04:55:37;;;;;;;59.20;41.15;;;;;;;19.13;70.64;101598.91;5073640;28;20040;-70
2021/06/06 04:58:04;;;;;;;61.00;41.28;;;;;;;19.16;70.49;101606.84;5073724;28;20024;-71
2021/06/06 05:00:33;;;;;;;66.47;45.95;;;;;;;19.14;70.39;101607.66;5057102;28;20394;-71
2021/06/06 05:02:59;;;;;;;64.33;45.13;;;;;;;19.20;70.56;101613.06;5073428;28;20499;-71
2021/06/06 05:05:24;;;;;;;62.58;42.38;;;;;;;19.18;71.00;101612.13;5074017;28;20297;-71
2021/06/06 05:07:56;;;;;;;61.85;42.45;;;;;;;19.29;70.68;101609.81;5057087;28;20028;-71
2021/06/06 05:10:23;;;;;;;60.65;41.60;;;;;;;19.24;70.10;101613.16;5073773;28;20021;-69
2021/06/06 05:12:49;;;;;;;66.85;43.15;;;;;;;19.22;70.27;101614.84;5073711;28;20013;-70
2021/06/06 05:15:16;;;;;;;61.60;43.78;;;;;;;19.26;70.70;101610.63;5068319;28;20138;-70
2021/06/06 05:17:41;;;;;;;67.38;46.38;;;;;;;19.24;70.74;101614.91;5073706;28;20073;-70
2021/06/06 05:20:09;;;;;;;67.80;48.30;;;;;;;19.15;71.47;101618.13;5074641;28;20020;-70
2021/06/06 05:22:34;;;;;;;68.43;46.03;;;;;;;19.14;71.70;101613.75;5071144;28;20028;-70
2021/06/06 05:25:00;;;;;;;63.65;44.47;;;;;;;19.14;71.06;101605.91;5071213;28;20028;-69
2021/06/06 05:27:25;;;;;;;70.85;48.03;;;;;;;19.04;71.31;101619.53;5062026;28;20241;-71
2021/06/06 05:29:57;;;;;;;69.43;46.28;;;;;;;18.90;70.84;101619.97;5042346;28;20104;-68
2021/06/06 05:32:23;;;;;;;62.92;45.90;;;;;;;18.97;70.61;101618.47;5060893;28;20318;-68
2021/06/06 05:34:49;;;;;;;64.72;44.55;;;;;;;18.95;70.05;101626.22;5069055;28;20104;-68
2021/06/06 05:37:15;;;;;;;67.30;44.13;;;;;;;18.92;70.10;101623.53;5061153;28;20111;-68
2021/06/06 05:39:42;;;;;;;65.38;43.72;;;;;;;18.86;69.60;101622.44;5057635;28;20049;-69
2021/06/06 05:42:08;;;;;;;67.88;46.30;;;;;;;18.84;69.38;101622.41;5060670;28;20021;-68
2021/06/06 05:44:34;;;;;;;62.85;44.20;;;;;;;18.88;69.68;101626.88;5062208;28;20079;-68
2021/06/06 05:47:00;;;;;;;59.63;42.65;;;;;;;18.76;70.21;101629.13;5058464;28;20021;-69
2021/06/06 05:49:26;;;;;;;65.57;46.13;;;;;;;18.86;68.88;101619.81;5059054;28;20020;-68
2021/06/06 05:51:51;;;;;;;68.05;46.05;;;;;;;18.86;69.65;101625.94;5060316;28;20055;-68
2021/06/06 05:54:17;;;;;;;67.95;46.65;;;;;;;18.84;69.27;101632.84;5058757;28;20033;-67
2021/06/06 05:56:46;;;;;;;59.63;43.28;;;;;;;18.84;68.85;101632.84;5061182;28;20032;-67
2021/06/06 05:59:11;;;;;;;66.55;44.58;;;;;;;18.82;68.60;101634.53;5069657;28;20039;-68
2021/06/06 06:01:37;;;;;;;66.13;41.90;;;;;;;18.85;69.14;101629.41;5070078;28;20028;-68
2021/06/06 06:04:02;;;;;;;55.75;41.85;;;;;;;18.81;68.96;101637.97;5062285;28;20020;-68
2021/06/06 06:06:27;;;;;;;60.08;43.28;;;;;;;18.76;69.27;101639.56;5063465;28;20115;-68
2021/06/06 06:08:53;;;;;;;60.58;43.20;;;;;;;18.81;68.96;101637.97;5064219;28;20032;-69
2021/06/06 06:11:21;;;;;;;63.67;42.30;;;;;;;18.73;69.70;101636.84;5063372;28;20016;-68
2021/06/06 06:13:47;;;;;;;62.92;44.45;;;;;;;18.75;68.93;101643.00;5061178;28;20486;-68
2021/06/06 06:16:15;;;;;;;61.35;43.28;;;;;;;18.73;68.39;101649.91;5070898;28;20016;-68
2021/06/06 06:18:41;;;;;;;61.70;41.97;;;;;;;18.67;68.61;101648.88;5072440;28;20023;-69
2021/06/06 06:21:10;;;;;;;65.38;45.42;;;;;;;18.59;68.87;101645.13;5073628;28;20111;-69
2021/06/06 06:23:36;;;;;;;66.93;45.38;;;;;;;18.68;69.14;101648.03;5071285;28;20085;-69
2021/06/06 06:26:02;;;;;;;64.35;44.65;;;;;;;18.69;69.24;101644.56;5072287;28;20373;-70
2021/06/06 06:28:29;;;;;;;65.82;45.47;;;;;;;18.69;69.19;101654.09;5073309;28;20093;-70
2021/06/06 06:30:54;;;;;;;67.30;46.30;;;;;;;18.65;68.89;101652.25;5072907;28;20028;-70
2021/06/06 06:33:20;;;;;;;73.35;47.20;;;;;;;18.52;69.73;101656.16;5072084;28;20028;-70
2021/06/06 06:35:45;;;;;;;73.35;47.95;;;;;;;18.52;69.94;101656.16;5073278;28;20028;-70
2021/06/06 06:38:12;;;;;;;69.68;47.80;;;;;;;18.54;69.68;101664.94;5059577;28;20043;-70
2021/06/06 06:40:38;;;;;;;70.38;47.63;;;;;;;18.43;69.83;101661.09;5067959;28;20529;-70
2021/06/06 06:43:05;;;;;;;75.90;48.90;;;;;;;18.50;69.67;101663.97;5073243;28;20104;-71
2021/06/06 06:45:34;;;;;;;75.65;48.38;;;;;;;18.56;69.71;101668.50;5072471;28;20029;-70
2021/06/06 06:48:12;;;;;;;75.90;48.03;;;;;;;18.62;69.57;101668.69;5072428;28;20024;-70
2021/06/06 06:50:37;;;;;;;80.05;49.72;;;;;;;18.65;69.35;101666.19;5072172;28;20086;-71
2021/06/06 06:53:03;;;;;;;74.10;49.50;;;;;;;18.67;69.33;101667.13;5073065;28;20052;-71
2021/06/06 06:55:30;;;;;;;74.57;49.15;;;;;;;18.67;69.29;101668.84;5071895;28;20029;-71
2021/06/06 06:57:57;;;;;;;73.80;49.40;;;;;;;18.59;69.73;101673.81;5071159;28;20497;-70
2021/06/06 07:00:29;;;;;;;72.68;47.95;;;;;;;18.64;69.70;101671.34;5072220;28;20028;-71
2021/06/06 07:02:54;;;;;;;68.60;47.13;;;;;;;18.56;69.41;101676.34;5071640;28;20039;-71
2021/06/06 07:05:20;;;;;;;63.75;45.30;;;;;;;18.40;70.02;101673.19;5072240;28;20478;-71
2021/06/06 07:07:46;;;;;;;68.78;45.08;;;;;;;18.53;70.41;101673.59;5070959;28;20075;-70
2021/06/06 07:10:16;;;;;;;66.20;45.67;;;;;;;18.62;69.51;101679.13;5067253;28;20024;-70
2021/06/06 07:12:42;;;;;;;67.07;46.50;;;;;;;18.66;68.94;101675.78;5038831;28;20028;-70
2021/06/06 07:15:09;;;;;;;69.45;46.17;;;;;;;18.68;68.99;101674.13;5052576;28;20420;-70
2021/06/06 07:17:35;;;;;;;74.28;46.63;;;;;;;18.76;68.98;101676.94;5062765;28;20036;-71
2021/06/06 07:20:02;;;;;;;67.68;45.28;;;;;;;18.79;69.08;101670.97;5066607;28;20036;-70
2021/06/06 07:22:28;;;;;;;64.72;43.88;;;;;;;18.88;67.94;101681.69;5064364;28;20390;-70
2021/06/06 07:24:54;;;;;;;63.70;42.47;;;;;;;18.98;67.31;101683.78;5063434;28;20479;-70
2021/06/06 07:27:21;;;;;;;62.70;43.42;;;;;;;19.03;67.19;101685.66;5058828;28;20040;-69
2021/06/06 07:29:48;;;;;;;65.75;43.63;;;;;;;19.07;66.85;101690.13;5065235;28;20024;-70
2021/06/06 07:32:14;;;;;;;63.10;42.47;;;;;;;19.03;66.93;101680.44;5068367;28;20048;-70
2021/06/06 07:34:39;;;;;;;69.93;45.45;;;;;;;19.04;67.46;101692.66;5051394;28;20109;-70
2021/06/06 07:37:06;;;;;;;65.93;44.38;;;;;;;18.75;68.74;101689.97;5069045;28;20039;-70
2021/06/06 07:39:33;;;;;;;63.75;44.00;;;;;;;19.00;67.76;101685.56;5069625;28;20039;-70
2021/06/06 07:41:59;;;;;;;67.47;45.35;;;;;;;18.93;68.17;101680.09;5069618;28;20024;-70
2021/06/06 07:44:25;;;;;;;64.22;43.63;;;;;;;18.93;67.82;101687.94;5069351;28;20386;-70
2021/06/06 07:46:52;;;;;;;66.22;42.75;;;;;;;18.98;67.94;101688.09;5068214;28;20024;-71
2021/06/06 07:49:18;;;;;;;62.35;43.08;;;;;;;18.94;67.55;101687.09;5069403;28;20032;-71
2021/06/06 07:51:44;;;;;;;68.72;41.92;;;;;;;18.86;68.68;101688.59;5070004;28;20028;-71
2021/06/06 07:54:10;;;;;;;61.97;42.33;;;;;;;18.91;68.02;101687.00;5069261;28;20393;-69
2021/06/06 07:56:35;;;;;;;62.35;43.20;;;;;;;18.96;68.15;101685.44;5054897;28;20024;-71
2021/06/06 07:59:03;;;;;;;67.45;42.38;;;;;;;18.98;67.51;101678.56;5069513;28;20035;-70
2021/06/06 08:01:29;;;;;;;60.20;41.42;;;;;;;19.03;67.80;101685.66;5069233;28;20020;-70
2021/06/06 08:03:56;;;;;;;62.38;40.60;;;;;;;19.03;67.25;101688.25;5068381;28;20030;-70
2021/06/06 08:06:22;;;;;;;66.55;43.95;;;;;;;18.96;67.62;101689.75;5067923;28;21553;-71
2021/06/06 08:08:48;;;;;;;60.83;41.17;;;;;;;18.98;67.73;101686.41;5071268;28;20029;-70
2021/06/06 08:11:13;;;;;;;58.80;40.53;;;;;;;18.93;67.84;101695.78;5075304;28;20065;-70
2021/06/06 08:13:39;;;;;;;62.88;41.53;;;;;;;19.04;68.20;101692.66;5073788;28;20094;-69
2021/06/06 08:16:06;;;;;;;62.53;43.38;;;;;;;19.09;68.08;101696.28;5073952;28;20104;-69
2021/06/06 08:18:35;;;;;;;60.25;40.13;;;;;;;19.21;67.46;101691.44;5072717;28;20511;-71
2021/06/06 08:21:14;;;;;;;55.80;38.47;;;;;;;19.31;67.09;101696.94;5074222;28;20032;-70
2021/06/06 08:23:41;;;;;;;56.40;39.78;;;;;;;19.33;67.11;101700.47;5059683;28;20482;-71
2021/06/06 08:26:08;;;;;;;60.63;40.15;;;;;;;19.32;67.69;101688.25;5066313;28;20035;-71
2021/06/06 08:28:34;;;;;;;60.25;39.85;;;;;;;19.36;66.66;101692.72;5074389;28;20086;-68
2021/06/06 08:31:07;;;;;;;59.78;39.25;;;;;;;19.38;66.84;101698.88;5058746;28;20029;-71
2021/06/06 08:33:34;;;;;;;56.70;37.60;;;;;;;19.38;66.46;101696.28;5070342;28;20465;-70
2021/06/06 08:36:07;;;;;;;55.10;37.65;;;;;;;19.29;66.66;101698.59;5074309;28;20031;-70
2021/06/06 08:38:33;;;;;;;56.83;36.63;;;;;;;19.26;66.88;101700.28;5071910;28;20405;-71
2021/06/06 08:41:01;;;;;;;61.28;40.03;;;;;;;19.29;66.49;101709.06;5074604;28;20017;-71
2021/06/06 08:43:40;;;;;;;58.88;38.75;;;;;;;19.29;67.22;101704.72;5075070;28;20020;-71
2021/06/06 08:46:06;;;;;;;56.37;39.03;;;;;;;19.26;67.56;101705.50;5071565;28;20374;-70
2021/06/06 08:48:32;;;;;;;56.63;37.25;;;;;;;19.40;66.69;101705.03;5073830;28;20435;-71
2021/06/06 08:51:05;;;;;;;59.60;38.67;;;;;;;19.32;66.33;101703.94;5072569;28;20021;-71
2021/06/06 08:53:49;;;;;;;55.92;37.22;;;;;;;19.37;67.22;101707.56;5071397;28;20047;-71
2021/06/06 08:56:18;;;;;;;53.92;36.85;;;;;;;19.39;66.56;101711.09;5070101;28;20046;-71
2021/06/06 08:58:49;;;;;;;52.05;35.75;;;;;;;19.45;66.52;101711.28;5071193;28;20028;-71
2021/06/06 09:01:29;;;;;;;49.97;35.65;;;;;;;19.61;66.02;101709.13;5073047;28;20111;-69
2021/06/06 09:03:58;;;;;;;50.83;34.17;;;;;;;19.75;65.44;101710.41;5071217;28;20023;-71
2021/06/06 09:06:43;;;;;;;47.88;32.67;;;;;;;19.78;64.85;101710.50;5075228;28;20020;-69
2021/06/06 09:09:11;;;;;;;45.78;32.65;;;;;;;19.88;65.21;101718.59;5063826;28;20368;-70
2021/06/06 09:11:37;;;;;;;51.70;35.90;;;;;;;19.88;64.83;101722.09;5074046;28;20036;-71
2021/06/06 09:14:03;;;;;;;56.03;36.03;;;;;;;19.78;64.89;101714.84;5073626;28;20033;-70
2021/06/06 09:16:34;;;;;;;51.17;33.17;;;;;;;19.84;65.54;101715.91;5073395;28;20048;-70
2021/06/06 09:19:03;;;;;;;52.03;35.85;;;;;;;19.94;64.56;101716.19;5072754;28;20020;-69
2021/06/06 09:21:29;;;;;;;;;;;;;;;20.01;64.66;101712.91;5055888;28;20029;-71
2021/06/06 09:24:08;;;;;;;48.80;34.03;;;;;;;19.96;64.22;101719.75;5072622;28;19916;-70
2021/06/06 09:26:34;;;;;;;48.80;33.45;;;;;;;19.91;65.05;101713.50;5072828;28;20043;-69
2021/06/06 09:29:24;;;;;;;49.10;33.70;;;;;;;19.95;65.44;101720.59;5072398;28;20025;-70
2021/06/06 09:31:49;;;;;;;51.42;33.92;;;;;;;19.92;64.85;101717.88;5072755;28;20469;-70
2021/06/06 09:34:24;;;;;;;50.45;33.78;;;;;;;19.97;65.29;101721.50;5072204;28;20120;-70
2021/06/06 09:37:01;;;;;;;49.90;33.58;;;;;;;20.04;64.87;101715.59;5070133;28;20112;-70
2021/06/06 09:39:30;;;;;;;48.38;33.30;;;;;;;20.18;64.84;101717.69;5063788;28;20025;-71
2021/06/06 09:41:58;;;;;;;52.17;33.25;;;;;;;20.18;64.66;101715.09;5072658;28;20025;-71
2021/06/06 09:44:33;;;;;;;45.35;31.65;;;;;;;20.29;64.48;101718.88;5072413;28;20020;-70
2021/06/06 09:47:04;;;;;;;44.95;31.38;;;;;;;20.34;64.03;101727.72;5063321;28;20027;-71
2021/06/06 09:49:31;;;;;;;44.13;31.17;;;;;;;20.32;63.81;101724.19;5071998;28;20032;-69
2021/06/06 09:52:11;;;;;;;44.75;31.35;;;;;;;20.35;64.03;101724.25;5070592;28;20027;-71
2021/06/06 09:54:38;;;;;;;45.75;31.77;;;;;;;20.37;62.92;101721.69;5053336;28;20044;-67
2021/06/06 09:57:06;;;;;;;46.78;32.38;;;;;;;20.31;64.18;101727.63;5071752;28;20032;-69
2021/06/06 09:59:50;;;;;;;52.35;34.42;;;;;;;20.27;64.06;101723.16;5069553;28;20028;-67
